Terminal Aerodrome Forecast
Issued by NWS Mt. Holly, NJ

Home | Current Version | Previous Version | Text Only | Print | Product List | Glossary On
Versions: 1 2 3 4 5 6 7 8 9 10 11 12 13 14 15 16 17 18 19 20 21 22 23 24 25
000
FTUS41 KPHI 062106 AAA
TAFABE
TAF AMD
KABE 062106Z 0621/0718 06012G19KT 3SM BR SCT009 OVC015
      TEMPO 0622/0624 2SM BR OVC009
     FM070000 05006KT 5SM -DZ BR OVC009
     FM071000 01004KT 2SM -DZ BR OVC007
     FM071700 VRB03KT P6SM BKN025=

USA.gov is the U.S. government's official web portal to all federal, state and local government web resources and services.